Atomic City, Idaho
Current Conditions -  °F | °C
As of 11:53 AM on Saturday 25 Oct 2014 (Local Time) from KIDA Reporting Station
Clear Clear  
Wind Chill: 64°   Ceiling: Unl
Heat Index: 64°   Visibility: 10mi
Dew Point: 35°   Wind: 3mph
Humidity: 34%   Direction: 330°NNW
Pressure: 30.02"   Gusts: NA
Location:  43.44°N, 112.81°W
Report Text: KIDA 251753Z 33003KT 10SM CLR 18/02 A3002 RMK AO2 SLP150 HZ ALQDS T01780017 10178 20000 58008
Loading
Personal Weather Stations






























Interactive Weather Map New forecast layout! Learn more

10-Day Weather Forecast

Advertisements
Track Severe Weather on mobile